Terminal Aerodrome Forecast
Issued by NWS

Home | Current Version | Previous Version | Text Only | Print | Product List | Glossary On
Versions: 1 2 3 4 5 6 7 8 9 10 11 12 13 14 15 16 17 18 19 20 21 22 23 24 25 26 27
861
FTUS42 KCAE 231355 AAA
TAFDNL
TAF AMD
KDNL 231355Z 2314/2412 15010G18KT P6SM VCSH BKN007 OVC012
     FM231600 15010G18KT 6SM -SHRA BR SCT006 OVC015
      TEMPO 2319/2323 3SM SHRA
     FM240200 26003KT P6SM FEW250=

USA.gov is the U.S. government's official web portal to all federal, state and local government web resources and services.